Terminal Aerodrome Forecast
Issued by NWS Sioux Falls, SD

Home | Current Version | Previous Version | Text Only | Print | Product List | Glossary Off
Versions: 1 2 3 4 5 6 7 8 9 10 11 12 13 14 15 16 17 18

554
FTUS43 KFSD 231143
TAFFSD
TAF
KFSD 231143Z 2312/2412 06006KT P6SM VCTS SCT015 OVC025CB
     FM231300 08006KT P6SM SCT020 BKN150
     FM231500 16008KT P6SM BKN150
     FM231600 17012KT P6SM SCT025 BKN150
     FM232000 19011KT P6SM SCT045 SCT250
     FM240100 29012KT P6SM SCT200
     FM240300 32007KT P6SM SCT250=

USA.gov is the U.S. government's official web portal to all federal, state and local government web resources and services.